createdAt,value
2024-03-02T00:00:14.236Z,6.95
2024-03-02T00:02:47.752Z,7.13
2024-03-02T00:05:16.223Z,7.60
2024-03-02T00:07:44.008Z,6.65
2024-03-02T00:10:12.864Z,7.00
2024-03-02T00:12:40.434Z,7.63
2024-03-02T00:15:43.043Z,6.50
2024-03-02T00:18:12.826Z,7.05
2024-03-02T00:20:40.091Z,6.57
2024-03-02T00:23:08.677Z,7.88
2024-03-02T00:25:42.333Z,7.88
2024-03-02T00:28:19.785Z,7.53
2024-03-02T00:30:53.289Z,7.50
2024-03-02T00:33:21.186Z,7.63
2024-03-02T00:35:48.222Z,7.78
2024-03-02T00:38:16.621Z,7.40
2024-03-02T00:40:44.068Z,7.75
2024-03-02T00:43:47.267Z,6.82
2024-03-02T00:46:19.416Z,7.57
2024-03-02T00:48:52.312Z,7.70
2024-03-02T00:51:19.034Z,7.32
2024-03-02T00:53:46.104Z,6.40
2024-03-02T00:56:15.468Z,7.63
2024-03-02T00:58:41.994Z,7.20
2024-03-02T01:01:08.831Z,6.90
2024-03-02T01:03:35.555Z,7.30
2024-03-02T01:06:02.197Z,7.43
2024-03-02T01:08:28.780Z,7.18
2024-03-02T01:10:55.848Z,7.82
2024-03-02T01:13:24.203Z,8.50
2024-03-02T01:15:51.277Z,7.68
2024-03-02T01:18:17.962Z,7.55
2024-03-02T01:20:44.653Z,7.65
2024-03-02T01:23:11.236Z,8.25
2024-03-02T01:25:37.883Z,8.60
2024-03-02T01:28:05.477Z,8.05
2024-03-02T01:30:31.999Z,8.05
2024-03-02T01:33:00.101Z,8.27
2024-03-02T01:35:28.282Z,8.50
2024-03-02T01:37:55.237Z,8.35
2024-03-02T01:40:21.972Z,7.93
2024-03-02T01:42:48.598Z,8.25
2024-03-02T01:45:15.203Z,8.50
2024-03-02T01:47:41.761Z,8.32
2024-03-02T01:50:09.420Z,8.68
2024-03-02T01:52:36.005Z,7.82
2024-03-02T01:55:02.510Z,7.63
2024-03-02T01:57:29.018Z,8.45
2024-03-02T01:59:55.601Z,9.55
2024-03-02T02:02:22.385Z,9.13
2024-03-02T02:04:48.867Z,7.93
2024-03-02T02:07:15.515Z,7.65
2024-03-02T02:09:43.154Z,8.10
2024-03-02T02:12:10.963Z,8.88
2024-03-02T02:14:38.216Z,9.57
2024-03-02T02:17:04.953Z,8.32
2024-03-02T02:19:31.400Z,9.43
2024-03-02T02:21:57.976Z,8.10
2024-03-02T02:24:24.523Z,9.15
2024-03-02T02:26:51.024Z,9.02
2024-03-02T02:29:17.555Z,9.13
2024-03-02T02:31:44.010Z,8.90
2024-03-02T02:34:10.700Z,9.93
2024-03-02T02:36:40.978Z,8.85
2024-03-02T02:39:09.892Z,8.90
2024-03-02T02:41:36.356Z,10.38
2024-03-02T02:44:02.870Z,9.73
2024-03-02T02:46:29.329Z,9.40
2024-03-02T02:48:55.880Z,9.73
2024-03-02T02:51:22.518Z,10.38
2024-03-02T02:53:48.969Z,10.48
2024-03-02T02:56:15.451Z,9.88
2024-03-02T02:58:42.909Z,11.30
2024-03-02T03:01:09.677Z,10.23
2024-03-02T03:03:36.303Z,9.27
2024-03-02T03:06:03.432Z,10.00
2024-03-02T03:08:30.022Z,9.77
2024-03-02T03:10:56.761Z,9.45
2024-03-02T03:13:23.834Z,9.60
2024-03-02T03:15:50.467Z,9.50
2024-03-02T03:18:17.135Z,10.05
2024-03-02T03:20:43.745Z,10.90
2024-03-02T03:23:10.187Z,10.40
2024-03-02T03:25:36.617Z,11.50
2024-03-02T03:28:03.310Z,11.07
2024-03-02T03:30:30.303Z,11.75
2024-03-02T03:32:57.093Z,11.65
2024-03-02T03:35:23.875Z,11.00
2024-03-02T03:37:50.394Z,11.23
2024-03-02T03:40:17.094Z,12.63
2024-03-02T03:42:43.728Z,12.07
2024-03-02T03:45:10.436Z,12.02
2024-03-02T03:47:37.195Z,12.18
2024-03-02T03:50:06.853Z,12.32
2024-03-02T03:52:33.647Z,11.95
2024-03-02T03:55:01.306Z,11.35
2024-03-02T03:57:28.502Z,11.27
2024-03-02T03:59:55.038Z,10.90
2024-03-02T04:02:21.542Z,11.27
2024-03-02T04:04:48.010Z,11.45
2024-03-02T04:07:14.495Z,10.48
2024-03-02T04:09:40.983Z,10.45
2024-03-02T04:12:07.625Z,12.13
2024-03-02T04:14:34.088Z,11.73
2024-03-02T04:17:01.237Z,11.43
2024-03-02T04:19:27.751Z,12.18
2024-03-02T04:21:54.296Z,12.20
2024-03-02T04:24:20.868Z,13.50
2024-03-02T04:26:47.301Z,13.65
2024-03-02T04:29:14.058Z,12.52
2024-03-02T04:31:40.598Z,12.38
2024-03-02T04:34:07.186Z,13.10
2024-03-02T04:36:34.284Z,12.93
2024-03-02T04:39:00.906Z,12.65
2024-03-02T04:41:27.418Z,12.73
2024-03-02T04:43:53.891Z,11.52
2024-03-02T04:46:20.373Z,14.43
2024-03-02T04:48:46.884Z,12.88
2024-03-02T04:51:14.556Z,12.27
2024-03-02T04:53:41.012Z,11.48
2024-03-02T04:56:26.308Z,11.10
2024-03-02T04:58:52.746Z,11.90
2024-03-02T05:01:19.319Z,11.00
2024-03-02T05:03:46.355Z,10.95
2024-03-02T05:06:12.896Z,11.07
2024-03-02T05:08:39.318Z,11.40
2024-03-02T05:11:24.376Z,11.57
2024-03-02T05:13:50.890Z,10.95
2024-03-02T05:16:17.491Z,12.18
2024-03-02T05:18:43.995Z,12.38
2024-03-02T05:21:10.456Z,13.07
2024-03-02T05:23:36.904Z,11.82
2024-03-02T05:26:03.884Z,11.20
2024-03-02T05:28:30.421Z,13.18
2024-03-02T05:30:57.202Z,10.80
2024-03-02T05:33:23.891Z,12.05
2024-03-02T05:35:53.504Z,11.88
2024-03-02T05:38:19.995Z,12.02
2024-03-02T05:40:46.465Z,10.75
2024-03-02T05:43:13.090Z,11.35
2024-03-02T05:45:40.619Z,11.10
2024-03-02T05:48:08.763Z,12.20
2024-03-02T05:50:35.274Z,11.15
2024-03-02T05:53:01.871Z,11.63
2024-03-02T05:55:28.397Z,10.68
2024-03-02T05:58:06.673Z,10.05
2024-03-02T06:00:33.626Z,11.18
2024-03-02T06:03:00.117Z,9.95
2024-03-02T06:05:26.648Z,9.50
2024-03-02T06:07:53.180Z,10.00
2024-03-02T06:10:20.005Z,9.98
2024-03-02T06:12:46.881Z,9.90
2024-03-02T06:15:13.448Z,9.50
2024-03-02T06:17:40.019Z,9.40
2024-03-02T06:20:09.158Z,10.45
2024-03-02T06:22:36.083Z,8.70
2024-03-02T06:25:02.605Z,10.23
2024-03-02T06:27:29.156Z,9.35
2024-03-02T06:29:56.004Z,9.18
2024-03-02T06:32:24.062Z,9.65
2024-03-02T06:34:50.560Z,9.45
2024-03-02T06:37:17.288Z,10.38
2024-03-02T06:39:44.518Z,9.93
2024-03-02T06:42:11.004Z,10.27
2024-03-02T06:44:37.598Z,10.02
2024-03-02T06:47:04.173Z,8.80
2024-03-02T06:49:30.697Z,9.32
2024-03-02T06:51:57.679Z,9.02
2024-03-02T06:54:24.192Z,9.50
2024-03-02T06:56:50.722Z,10.23
2024-03-02T06:59:17.283Z,10.13
2024-03-02T07:01:44.593Z,9.05
2024-03-02T07:04:11.086Z,10.93
2024-03-02T07:06:37.641Z,9.85
2024-03-02T07:09:04.304Z,9.25
2024-03-02T07:11:30.820Z,8.85
2024-03-02T07:13:57.610Z,8.18
2024-03-02T07:16:31.064Z,8.10
2024-03-02T07:18:58.017Z,8.88
2024-03-02T07:21:24.747Z,7.05
2024-03-02T07:23:51.982Z,8.43
2024-03-02T07:28:51.616Z,8.25
2024-03-02T07:31:18.505Z,8.55
2024-03-02T07:33:46.692Z,8.93
2024-03-02T07:36:14.055Z,9.80
2024-03-02T07:38:41.652Z,8.68
2024-03-02T07:41:09.751Z,8.38
2024-03-02T07:43:36.288Z,8.80
2024-03-02T07:46:04.102Z,8.98
2024-03-02T07:48:32.238Z,9.38
2024-03-02T07:50:58.941Z,9.40
2024-03-02T07:53:25.465Z,7.82
2024-03-02T07:55:52.058Z,10.82
2024-03-02T07:58:20.481Z,9.38
2024-03-02T08:00:47.444Z,9.13
2024-03-02T08:03:14.781Z,9.55
2024-03-02T08:05:41.541Z,9.32
2024-03-02T08:08:08.008Z,9.15
2024-03-02T08:10:34.961Z,10.38
2024-03-02T08:13:01.593Z,8.20
2024-03-02T08:15:28.185Z,8.38
2024-03-02T08:17:54.807Z,9.30
2024-03-02T08:20:21.395Z,8.38
2024-03-02T08:22:48.320Z,9.50
2024-03-02T08:25:15.000Z,9.65
2024-03-02T08:27:41.689Z,9.10
2024-03-02T08:30:09.486Z,9.98
2024-03-02T08:32:36.120Z,8.55
2024-03-02T08:35:02.656Z,9.27
2024-03-02T08:37:29.268Z,8.50
2024-03-02T08:39:56.175Z,8.20
2024-03-02T08:42:23.585Z,9.02
2024-03-02T08:44:50.770Z,8.18
2024-03-02T08:47:17.490Z,7.75
2024-03-02T08:49:44.229Z,8.13
2024-03-02T08:52:10.951Z,7.35
2024-03-02T08:54:37.648Z,7.57
2024-03-02T08:57:04.370Z,9.07
2024-03-02T08:59:30.894Z,7.90
2024-03-02T09:01:57.942Z,8.02
2024-03-02T09:04:27.154Z,7.63
2024-03-02T09:06:54.609Z,7.68
2024-03-02T09:09:21.264Z,8.70
2024-03-02T09:11:48.286Z,7.57
2024-03-02T09:14:18.521Z,7.03
2024-03-02T09:16:45.240Z,6.82
2024-03-02T09:19:11.987Z,7.28
2024-03-02T09:21:38.855Z,7.85
2024-03-02T09:24:07.692Z,6.82
2024-03-02T09:26:34.300Z,6.68
2024-03-02T09:29:00.854Z,6.45
2024-03-02T09:31:27.359Z,6.40
2024-03-02T09:33:54.081Z,5.38
2024-03-02T09:36:23.260Z,5.28
2024-03-02T09:38:50.046Z,5.45
2024-03-02T09:41:16.633Z,6.60
2024-03-02T09:43:43.311Z,5.82
2024-03-02T09:46:12.885Z,5.63
2024-03-02T09:48:40.128Z,3.90
2024-03-02T09:51:06.788Z,5.38
2024-03-02T09:53:35.235Z,4.65
2024-03-02T09:56:02.483Z,4.18
2024-03-02T09:58:29.667Z,4.40
2024-03-02T10:00:56.280Z,3.55
2024-03-02T10:03:27.982Z,3.60
2024-03-02T10:08:21.044Z,3.20
2024-03-02T10:10:47.649Z,3.47
2024-03-02T10:13:14.839Z,3.67
2024-03-02T10:15:42.765Z,3.33
2024-03-02T10:18:12.748Z,3.92
2024-03-02T10:20:40.617Z,3.72
2024-03-02T10:23:14.825Z,3.22
2024-03-02T10:25:50.912Z,3.75
2024-03-02T10:28:21.578Z,2.88
2024-03-02T10:30:49.890Z,3.53
2024-03-02T10:33:18.521Z,3.50
2024-03-02T10:35:45.261Z,4.15
2024-03-02T10:38:12.488Z,3.15
2024-03-02T10:40:39.021Z,3.00
2024-03-02T10:43:07.082Z,3.13
2024-03-02T10:45:34.343Z,2.92
2024-03-02T10:48:03.350Z,2.33
2024-03-02T10:50:30.059Z,2.60
2024-03-02T10:52:56.613Z,2.65
2024-03-02T10:55:23.281Z,2.40
2024-03-02T10:57:54.776Z,2.25
2024-03-02T11:02:58.037Z,1.90
2024-03-02T11:05:29.441Z,1.63
2024-03-02T11:08:04.129Z,1.40
2024-03-02T11:11:04.572Z,1.73
2024-03-02T11:13:38.533Z,1.20
2024-03-02T11:16:33.777Z,1.25
2024-03-02T11:19:01.518Z,1.20
2024-03-02T11:21:28.345Z,0.95
2024-03-02T11:23:54.902Z,1.08
2024-03-02T11:26:23.595Z,0.50
2024-03-02T11:28:50.349Z,0.60
2024-03-02T11:31:16.807Z,1.10
2024-03-02T11:33:44.028Z,1.13
2024-03-02T11:36:12.536Z,1.30
2024-03-02T11:38:39.531Z,1.02
2024-03-02T11:41:10.220Z,1.00
2024-03-02T11:43:40.864Z,1.10
2024-03-02T11:46:11.218Z,0.70
2024-03-02T11:48:39.080Z,1.00
2024-03-02T11:51:05.757Z,0.73
2024-03-02T11:53:36.242Z,0.80
2024-03-02T11:56:03.716Z,0.82
2024-03-02T11:58:31.197Z,0.40
2024-03-02T12:00:58.182Z,0.50
2024-03-02T12:03:29.820Z,0.43
2024-03-02T12:08:24.581Z,0.45
2024-03-02T12:11:02.835Z,0.63
2024-03-02T12:13:30.305Z,0.30
2024-03-02T12:15:57.401Z,0.52
2024-03-02T12:18:24.151Z,0.40
2024-03-02T12:20:58.183Z,0.50
2024-03-02T12:23:24.809Z,2.53
2024-03-02T12:25:51.818Z,0.82
2024-03-02T12:28:18.728Z,0.30
2024-03-02T12:30:46.216Z,0.30
2024-03-02T12:33:12.933Z,0.50
2024-03-02T12:35:40.632Z,0.47
2024-03-02T12:38:07.153Z,1.05
2024-03-02T12:40:33.729Z,0.43
2024-03-02T12:43:00.274Z,0.57
2024-03-02T12:45:27.037Z,0.52
2024-03-02T12:47:54.229Z,0.43
2024-03-02T12:50:21.751Z,0.63
2024-03-02T12:52:55.340Z,0.60
2024-03-02T12:55:23.608Z,0.40
2024-03-02T12:57:54.303Z,0.50
2024-03-02T13:00:22.225Z,0.50
2024-03-02T13:02:50.085Z,0.65
2024-03-02T13:05:16.936Z,0.40
2024-03-02T13:07:43.772Z,0.68
2024-03-02T13:10:10.578Z,0.50
2024-03-02T13:12:38.221Z,0.55
2024-03-02T13:15:06.600Z,0.52
2024-03-02T13:17:38.198Z,0.40
2024-03-02T13:20:09.276Z,0.73
2024-03-02T13:22:36.158Z,0.60
2024-03-02T13:25:05.292Z,0.60
2024-03-02T13:27:35.539Z,0.60
2024-03-02T13:30:06.939Z,0.40
2024-03-02T13:35:01.309Z,0.90
2024-03-02T13:37:28.080Z,0.40
2024-03-02T13:39:54.599Z,0.30
2024-03-02T13:42:21.123Z,0.40
2024-03-02T13:44:49.370Z,0.52
2024-03-02T13:47:15.972Z,0.50
2024-03-02T13:49:46.595Z,0.40
2024-03-02T13:52:18.252Z,0.60
2024-03-02T13:54:46.915Z,0.57
2024-03-02T13:57:14.385Z,0.50
2024-03-02T13:59:42.849Z,0.50
2024-03-02T14:02:09.956Z,0.40
2024-03-02T14:04:38.476Z,0.50
2024-03-02T14:07:08.213Z,0.70
2024-03-02T14:09:35.377Z,0.88
2024-03-02T14:12:02.018Z,0.70
2024-03-02T14:14:28.513Z,0.60
2024-03-02T14:17:01.733Z,0.70
2024-03-02T14:19:28.550Z,0.50
2024-03-02T14:21:55.180Z,0.60
2024-03-02T14:24:25.132Z,0.60
2024-03-02T14:26:51.927Z,0.88
2024-03-02T14:29:20.367Z,0.70
2024-03-02T14:31:49.275Z,0.73
2024-03-02T14:34:16.656Z,0.57
2024-03-02T14:36:45.127Z,0.70
2024-03-02T14:39:12.378Z,0.50
2024-03-02T14:41:38.907Z,0.60
2024-03-02T14:44:05.509Z,0.55
2024-03-02T14:46:32.219Z,0.45
2024-03-02T14:48:59.293Z,0.60
2024-03-02T14:51:25.892Z,0.60
2024-03-02T14:53:52.723Z,0.65
2024-03-02T14:56:19.275Z,0.77
2024-03-02T14:58:46.643Z,0.57
2024-03-02T15:01:13.420Z,0.63
2024-03-02T15:03:40.860Z,0.50
2024-03-02T15:06:08.731Z,0.50
2024-03-02T15:08:35.280Z,0.45
2024-03-02T15:11:02.356Z,0.55
2024-03-02T15:13:28.953Z,0.90
2024-03-02T15:15:55.519Z,0.98
2024-03-02T15:18:22.172Z,0.90
2024-03-02T15:20:48.828Z,1.00
2024-03-02T15:23:15.294Z,0.60
2024-03-02T15:25:42.169Z,0.70
2024-03-02T15:28:08.910Z,0.60
2024-03-02T15:30:35.708Z,0.80
2024-03-02T15:33:02.272Z,0.82
2024-03-02T15:35:28.893Z,0.80
2024-03-02T15:37:55.404Z,0.85
2024-03-02T15:40:21.957Z,0.70
2024-03-02T15:42:48.577Z,0.80
2024-03-02T15:45:15.209Z,1.02
2024-03-02T15:47:41.987Z,0.98
2024-03-02T15:50:09.314Z,1.08
2024-03-02T15:52:35.852Z,0.82
2024-03-02T15:55:07.351Z,0.93
2024-03-02T15:57:34.386Z,0.60
2024-03-02T16:00:01.214Z,1.25
2024-03-02T16:02:38.054Z,1.15
2024-03-02T16:05:05.153Z,0.82
2024-03-02T16:07:33.009Z,1.10
2024-03-02T16:09:59.657Z,0.88
2024-03-02T16:12:26.146Z,1.02
2024-03-02T16:14:52.712Z,1.05
2024-03-02T16:17:19.191Z,1.05
2024-03-02T16:19:45.853Z,0.73
2024-03-02T16:22:12.727Z,0.90
2024-03-02T16:24:39.360Z,0.93
2024-03-02T16:27:05.893Z,0.85
2024-03-02T16:29:33.739Z,1.30
2024-03-02T16:32:01.845Z,1.13
2024-03-02T16:34:28.539Z,1.20
2024-03-02T16:36:55.339Z,1.42
2024-03-02T16:39:21.840Z,1.50
2024-03-02T16:41:48.460Z,1.40
2024-03-02T16:44:15.211Z,1.70
2024-03-02T16:46:41.965Z,1.15
2024-03-02T16:49:08.720Z,1.23
2024-03-02T16:51:42.762Z,1.70
2024-03-02T16:54:09.742Z,1.20
2024-03-02T16:56:44.315Z,1.15
2024-03-02T16:59:11.654Z,2.22
2024-03-02T17:01:38.440Z,1.63
2024-03-02T17:04:06.780Z,1.80
2024-03-02T17:06:33.545Z,1.27
2024-03-02T17:09:00.317Z,1.00
2024-03-02T17:11:26.965Z,1.00
2024-03-02T17:13:58.301Z,1.08
2024-03-02T17:16:25.744Z,1.20
2024-03-02T17:18:52.931Z,1.45
2024-03-02T17:21:19.471Z,1.75
2024-03-02T17:23:45.964Z,1.55
2024-03-02T17:26:12.410Z,2.10
2024-03-02T17:28:38.961Z,1.58
2024-03-02T17:31:05.791Z,1.60
2024-03-02T17:33:32.416Z,2.00
2024-03-02T17:35:59.088Z,2.95
2024-03-02T17:38:25.577Z,1.52
2024-03-02T17:40:52.107Z,1.75
2024-03-02T17:43:18.651Z,2.25
2024-03-02T17:45:45.244Z,2.80
2024-03-02T17:48:13.042Z,3.95
2024-03-02T17:50:39.681Z,4.97
2024-03-02T17:53:06.385Z,4.20
2024-03-02T17:55:32.954Z,4.03
2024-03-02T17:57:59.656Z,4.72
2024-03-02T18:00:26.491Z,4.90
2024-03-02T18:02:53.036Z,8.88
2024-03-02T18:05:19.508Z,5.38
2024-03-02T18:07:46.072Z,3.97
2024-03-02T18:10:12.748Z,7.03
2024-03-02T18:12:39.602Z,3.35
2024-03-02T18:15:08.342Z,6.97
2024-03-02T18:17:35.914Z,5.03
2024-03-02T18:20:05.529Z,3.85
2024-03-02T18:22:33.200Z,4.28
2024-03-02T18:25:00.594Z,7.90
2024-03-02T18:27:28.022Z,3.80
2024-03-02T18:29:55.184Z,4.38
2024-03-02T18:32:21.908Z,4.80
2024-03-02T18:34:48.479Z,4.32
2024-03-02T18:37:16.286Z,4.80
2024-03-02T18:39:43.006Z,4.82
2024-03-02T18:42:09.468Z,4.75
2024-03-02T18:44:35.948Z,5.65
2024-03-02T18:47:02.436Z,7.03
2024-03-02T18:49:28.983Z,6.40
2024-03-02T18:51:55.675Z,7.07
2024-03-02T18:54:22.225Z,7.05
2024-03-02T18:56:48.929Z,7.72
2024-03-02T18:59:15.487Z,8.32
2024-03-02T19:01:42.207Z,8.07
2024-03-02T19:04:08.914Z,9.48
2024-03-02T19:06:35.484Z,10.02
2024-03-02T19:09:02.083Z,9.60
2024-03-02T19:11:28.654Z,7.70
2024-03-02T19:13:55.165Z,8.60
2024-03-02T19:16:22.355Z,7.65
2024-03-02T19:18:48.903Z,9.63
2024-03-02T19:21:15.537Z,8.77
2024-03-02T19:23:45.197Z,8.73
2024-03-02T19:26:18.532Z,9.13
2024-03-02T19:28:46.144Z,9.05
2024-03-02T19:31:14.401Z,9.18
2024-03-02T19:33:41.037Z,9.88
2024-03-02T19:36:07.918Z,9.68
2024-03-02T19:38:37.779Z,9.80
2024-03-02T19:41:05.779Z,9.43
2024-03-02T19:43:32.321Z,10.35
2024-03-02T19:45:58.908Z,10.82
2024-03-02T19:48:25.446Z,10.48
2024-03-02T19:50:51.994Z,11.02
2024-03-02T19:53:18.455Z,11.07
2024-03-02T19:55:45.455Z,11.07
2024-03-02T19:58:12.349Z,10.85
2024-03-02T20:00:39.249Z,10.02
2024-03-02T20:03:05.922Z,10.23
2024-03-02T20:05:32.802Z,10.57
2024-03-02T20:07:59.296Z,10.15
2024-03-02T20:10:25.766Z,10.45
2024-03-02T20:12:52.351Z,10.77
2024-03-02T20:15:20.634Z,12.10
2024-03-02T20:17:48.172Z,11.18
2024-03-02T20:20:16.879Z,10.50
2024-03-02T20:22:43.905Z,10.00
2024-03-02T20:25:14.275Z,11.52
2024-03-02T20:27:44.580Z,12.05
2024-03-02T20:30:12.102Z,10.30
2024-03-02T20:32:39.474Z,10.82
2024-03-02T20:35:06.797Z,10.52
2024-03-02T20:37:33.497Z,10.70
2024-03-02T20:40:00.397Z,10.95
2024-03-02T20:42:27.317Z,10.95
2024-03-02T20:44:53.910Z,10.07
2024-03-02T20:47:20.658Z,10.07
2024-03-02T20:49:47.200Z,10.48
2024-03-02T20:52:13.880Z,9.90
2024-03-02T20:54:40.461Z,10.40
2024-03-02T20:57:07.299Z,10.30
2024-03-02T20:59:34.787Z,10.32
2024-03-02T21:02:03.415Z,10.43
2024-03-02T21:04:29.991Z,10.02
2024-03-02T21:06:56.607Z,10.13
2024-03-02T21:09:23.164Z,9.40
2024-03-02T21:11:49.791Z,10.02
2024-03-02T21:14:16.322Z,11.07
2024-03-02T21:16:43.478Z,11.25
2024-03-02T21:19:10.221Z,11.23
2024-03-02T21:21:38.910Z,13.23
2024-03-02T21:24:05.612Z,12.40
2024-03-02T21:26:32.431Z,12.60
2024-03-02T21:28:58.938Z,11.65
2024-03-02T21:31:25.482Z,17.90
2024-03-02T21:33:52.013Z,10.23
2024-03-02T21:36:18.504Z,11.30
2024-03-02T21:38:45.042Z,12.00
2024-03-02T21:41:11.532Z,11.55
2024-03-02T21:43:38.517Z,10.80
2024-03-02T21:46:05.105Z,11.27
2024-03-02T21:48:31.654Z,10.68
2024-03-02T21:50:58.455Z,69.25
2024-03-02T21:53:24.965Z,11.77
2024-03-02T21:55:51.543Z,13.77
2024-03-02T21:58:18.230Z,16.83
2024-03-02T22:00:44.872Z,18.70
2024-03-02T22:03:11.334Z,87.75
2024-03-02T22:05:37.918Z,106.85
2024-03-02T22:08:04.650Z,12.50
2024-03-02T22:10:31.233Z,21.83
2024-03-02T22:12:57.789Z,12.45
2024-03-02T22:15:24.390Z,66.40
2024-03-02T22:17:51.829Z,12.10
2024-03-02T22:20:18.313Z,10.93
2024-03-02T22:22:44.797Z,37.28
2024-03-02T22:25:11.510Z,15.70
2024-03-02T22:27:41.972Z,17.23
2024-03-02T22:30:09.406Z,25.17
2024-03-02T22:32:35.890Z,21.00
2024-03-02T22:35:02.382Z,14.18
2024-03-02T22:37:28.892Z,13.27
2024-03-02T22:39:55.429Z,12.43
2024-03-02T22:42:21.883Z,12.27
2024-03-02T22:44:48.342Z,14.40
2024-03-02T22:47:14.817Z,22.40
2024-03-02T22:49:41.351Z,12.93
2024-03-02T22:52:07.848Z,14.30
2024-03-02T22:54:34.369Z,15.40
2024-03-02T22:57:02.114Z,13.43
2024-03-02T22:59:28.774Z,18.10
2024-03-02T23:01:55.606Z,38.10
2024-03-02T23:04:22.382Z,13.32
2024-03-02T23:06:49.555Z,19.48
2024-03-02T23:09:16.224Z,15.23
2024-03-02T23:11:42.663Z,14.85
2024-03-02T23:14:09.202Z,13.65
2024-03-02T23:16:38.123Z,12.05
2024-03-02T23:19:04.706Z,12.98
2024-03-02T23:21:31.295Z,14.35
2024-03-02T23:23:58.687Z,17.52
2024-03-02T23:26:26.093Z,14.25
2024-03-02T23:28:52.765Z,13.88
2024-03-02T23:31:19.650Z,13.88
2024-03-02T23:33:48.256Z,12.82
2024-03-02T23:36:15.103Z,12.77
2024-03-02T23:38:41.673Z,14.50
2024-03-02T23:41:08.146Z,14.95
2024-03-02T23:43:38.309Z,14.00
2024-03-02T23:46:05.988Z,14.10
2024-03-02T23:48:32.614Z,14.05
2024-03-02T23:50:59.184Z,14.20
2024-03-02T23:53:25.758Z,15.43
2024-03-02T23:55:53.245Z,13.48
2024-03-02T23:58:20.636Z,13.77
